16 agosto 2022

Tempo Codice Tempo metereologico Temp. Vista Base nuvolosa Vento METAR/SPECI
15:30
V
27 °C 10 km+ - 320° 320° 10 kt METAR LFSL 161330Z AUTO 32010KT 280V350 CAVOK 27/15 Q1008 TEMPO VRB15G25KT 2500 TSRA BKN040CB
15:00
V
27 °C 10 km+ - 320° 320° 5 kt METAR LFSL 161300Z AUTO 32005KT 270V360 CAVOK 27/15 Q1008 TEMPO VRB15G25KT 2500 TSRA BKN040CB
14:30
V
26 °C 10 km+ - 320° 320° 4 kt METAR LFSL 161230Z AUTO 32004KT 290V360 CAVOK 26/14 Q1008 TEMPO VRB15G25KT 2500 TSRA BKN040CB
14:00
V
26 °C 10 km+ - 330° 330° 4 kt METAR LFSL 161200Z AUTO 33004KT 280V010 CAVOK 26/16 Q1008 TEMPO VRB15G25KT 2500 TSRA BKN040CB
13:30
V
25 °C 10 km+ - 360° 360° 4 kt METAR LFSL 161130Z AUTO 36004KT 330V040 CAVOK 25/15 Q1008 TEMPO VRB15G25KT 2500 TSRA BKN040CB
13:00
V
24 °C 10 km+ - Var Var 3 kt METAR LFSL 161100Z AUTO VRB03KT CAVOK 24/16 Q1008 TEMPO VRB15G25KT 2500 TSRA BKN040CB
12:30
V
23 °C 10 km+ - 310° 310° 4 kt METAR LFSL 161030Z AUTO 31004KT 280V340 CAVOK 23/16 Q1008 TEMPO VRB15G25KT 2500 TSRA BKN040CB
12:00
V
23 °C 10 km+ - 030° 030° 3 kt METAR LFSL 161000Z AUTO 03003KT 350V070 CAVOK 23/15 Q1008 TEMPO 4000 -SHRA BKN040TCU
11:30
V
22 °C 10 km+ - Var Var 3 kt METAR LFSL 160930Z AUTO VRB03KT 9999 ///TCU 22/15 Q1008 TEMPO 4000 -SHRA
11:00
V
22 °C 10 km+ - Var Var 3 kt METAR LFSL 160900Z AUTO VRB03KT CAVOK 22/14 Q1008 TEMPO 4000 -SHRA BKN040TCU
10:30
V
22 °C 10 km+ - Var Var 3 kt METAR LFSL 160830Z AUTO VRB03KT CAVOK 22/14 Q1008 NOSIG
10:00
V
21 °C 10 km+ - 120° 120° 6 kt METAR LFSL 160800Z AUTO 12006KT 110V180 CAVOK 21/14 Q1008 NOSIG
09:30
V
20 °C 10 km+ - 120° 120° 5 kt METAR LFSL 160730Z AUTO 12005KT CAVOK 20/14 Q1008 NOSIG
09:00
V
19 °C 10 km+ - 120° 120° 5 kt METAR LFSL 160700Z AUTO 12005KT CAVOK 19/15 Q1008 NOSIG
08:30
V
18 °C 10 km+ - 120° 120° 5 kt METAR LFSL 160630Z AUTO 12005KT CAVOK 18/15 Q1008 NOSIG
08:00
V
16 °C 10 km+ - 120° 120° 4 kt METAR LFSL 160600Z AUTO 12004KT CAVOK 16/15 Q1008 NOSIG
07:30
V
15 °C 10 km+ - 120° 120° 4 kt METAR LFSL 160530Z AUTO 12004KT CAVOK 15/14 Q1008 NOSIG
07:00
V
14 °C 10 km+ - 130° 130° 3 kt METAR LFSL 160500Z AUTO 13003KT CAVOK 14/14 Q1008 NOSIG
06:30
V
14 °C 10 km+ - 130° 130° 2 kt METAR LFSL 160430Z AUTO 13002KT CAVOK 14/13 Q1008 NOSIG
06:00
V
14 °C 9 km - Var Var 2 kt METAR LFSL 160400Z AUTO VRB02KT 9000 NSC 14/13 Q1008 NOSIG
05:30
V
14 °C 10 km+ - Var 000° 0 kt METAR LFSL 160330Z AUTO 00000KT CAVOK 14/13 Q1009 NOSIG
05:00
V
14 °C 10 km+ - Var 000° 0 kt METAR LFSL 160300Z AUTO 00000KT CAVOK 14/13 Q1009
04:30
V
14 °C 10 km+ - Var 000° 0 kt METAR LFSL 160230Z AUTO 00000KT CAVOK 14/13 Q1009
04:00
V
14 °C 10 km+ - Var 000° 0 kt METAR LFSL 160200Z AUTO 00000KT CAVOK 14/13 Q1009
03:30
V
14 °C 10 km+ - Var Var 1 kt METAR LFSL 160130Z AUTO VRB01KT CAVOK 14/13 Q1009
03:00
V
15 °C 10 km+ - Var 000° 0 kt METAR LFSL 160100Z AUTO 00000KT CAVOK 15/13 Q1009
02:30
V
15 °C 10 km+ - 120° 120° 2 kt METAR LFSL 160030Z AUTO 12002KT CAVOK 15/14 Q1010
02:00
V
15 °C 10 km+ - Var 000° 0 kt METAR LFSL 160000Z AUTO 00000KT CAVOK 15/14 Q1010
01:30
V
15 °C 10 km+ - Var 000° 0 kt METAR LFSL 152330Z AUTO 00000KT CAVOK 15/14 Q1010
01:00
V
16 °C 10 km+ - Var 000° 0 kt METAR LFSL 152300Z AUTO 00000KT CAVOK 16/14 Q1010
00:30
V
16 °C 10 km+ - Var 000° 0 kt METAR LFSL 152230Z AUTO 00000KT CAVOK 16/14 Q1010
00:00
V
16 °C 10 km+ - Var 000° 0 kt METAR LFSL 152200Z AUTO 00000KT CAVOK 16/15 Q1010

15 agosto 2022

Tempo Codice Tempo metereologico Temp. Vista Base nuvolosa Vento METAR/SPECI
23:30
V
17 °C 10 km+ - Var 000° 0 kt METAR LFSL 152130Z AUTO 00000KT CAVOK 17/15 Q1010
23:00
V
17 °C 10 km+ - Var 000° 0 kt METAR LFSL 152100Z AUTO 00000KT CAVOK 17/15 Q1010
22:30
V
18 °C 10 km+ - Var 000° 0 kt METAR LFSL 152030Z AUTO 00000KT CAVOK 18/15 Q1010
22:00
V
19 °C 10 km+ - Var 000° 0 kt METAR LFSL 152000Z AUTO 00000KT CAVOK 19/15 Q1010 NOSIG
21:30
V
21 °C 10 km+ - Var 000° 0 kt METAR LFSL 151930Z AUTO 00000KT CAVOK 21/15 Q1010 NOSIG
21:00
V
22 °C 10 km+ - 230° 230° 2 kt METAR LFSL 151900Z AUTO 23002KT CAVOK 22/16 Q1009 NOSIG
20:30
V
25 °C 10 km+ - Var Var 2 kt METAR LFSL 151830Z AUTO VRB02KT CAVOK 25/15 Q1009 NOSIG
20:00
V
25 °C 10 km+ - 230° 230° 3 kt METAR LFSL 151800Z AUTO 23003KT 180V280 CAVOK 25/14 Q1009 NOSIG
19:30
V
26 °C 10 km+ - Var Var 3 kt METAR LFSL 151730Z AUTO VRB03KT CAVOK 26/15 Q1009 NOSIG
19:00
V
26 °C 10 km+ - 240° 240° 3 kt METAR LFSL 151700Z AUTO 24003KT 120V290 CAVOK 26/15 Q1009 NOSIG
18:30
V
27 °C 10 km+ 4.800 ft Var Var 4 kt METAR LFSL 151630Z AUTO VRB04KT 9999 BKN048 BKN076 27/14 Q1009 NOSIG
18:00
V
26 °C 10 km+ 6.200 ft Var Var 3 kt METAR LFSL 151600Z AUTO VRB03KT 9999 SCT046 BKN062 BKN076 26/15 Q1009 NOSIG
17:30
V
26 °C 10 km+ - Var Var 2 kt METAR LFSL 151530Z AUTO VRB02KT CAVOK 26/15 Q1009 NOSIG
17:00
V
25 °C 10 km+ 7.600 ft 290° 290° 3 kt METAR LFSL 151500Z AUTO 29003KT 210V360 9999 SCT043 SCT062 OVC076 25/15 Q1010 NOSIG
16:30
V
27 °C 10 km+ 8.000 ft Var Var 3 kt METAR LFSL 151430Z AUTO VRB03KT 9999 FEW042 SCT066 BKN080 27/15 Q1010 NOSIG
16:00
V
25 °C 10 km+ 4.100 ft 240° 240° 5 kt METAR LFSL 151400Z AUTO 24005KT 170V310 9999 BKN041 BKN072 25/16 Q1010 NOSIG
15:30
V
25 °C 10 km+ 3.800 ft Var Var 5 kt METAR LFSL 151330Z AUTO VRB05KT 9999 BKN038 BKN076 25/16 Q1010 NOSIG
15:00
V
26 °C 10 km+ 3.800 ft Var Var 5 kt METAR LFSL 151300Z AUTO VRB05KT 9999 BKN038 BKN050 OVC066 26/15 Q1010 NOSIG
14:30
V
24 °C 10 km+ 3.300 ft 300° 300° 7 kt METAR LFSL 151230Z AUTO 30007KT 240V320 9999 BKN033/// BKN040/// BKN056/// //////TCU 24/16 Q1011 BECMG NSC
14:00
V
23 °C 10 km+ 5.600 ft 310° 310° 5 kt METAR LFSL 151200Z AUTO 31005KT 270V350 9999 SCT033 SCT045 BKN056 23/16 Q1011 NOSIG
13:30
V
23 °C 10 km+ 4.400 ft Var Var 4 kt METAR LFSL 151130Z AUTO VRB04KT 9999 FEW023 SCT037 BKN044 23/16 Q1011 NOSIG
13:00
V
23 °C 10 km+ 6.600 ft Var Var 6 kt METAR LFSL 151100Z AUTO VRB06KT 9999 FEW023 SCT028 BKN066 23/16 Q1011 TEMPO 4000 -RA BKN005
12:30
M
22 °C 10 km+ 1.900 ft Var Var 4 kt METAR LFSL 151030Z AUTO VRB04KT 9999 BKN019 BKN028 BKN052 22/16 Q1011 TEMPO 4000 -RA BKN005
12:00
M
21 °C 10 km+ 1.700 ft 220° 220° 4 kt METAR LFSL 151000Z AUTO 22004KT 160V300 9999 BKN017 BKN040 OVC052 21/16 Q1011 TEMPO 4000 -RA BKN005
11:30
V
20 °C 10 km+ 4.000 ft 210° 210° 5 kt METAR LFSL 150930Z AUTO 21005KT 160V280 9999 SCT016 OVC040 20/16 Q1011 TEMPO 4000 -RA BKN005
11:00
M
20 °C 10 km+ 1.700 ft 200° 200° 5 kt METAR LFSL 150900Z AUTO 20005KT 120V260 9999 BKN017 OVC037 20/16 Q1011 TEMPO 4000 -RA BKN005
10:30
M
20 °C 10 km+ 1.300 ft 190° 190° 5 kt METAR LFSL 150830Z AUTO 19005KT 150V250 9999 BKN013 20/16 Q1011 TEMPO 4000 -RA BKN005
10:00
I
19 °C 10 km+ 900 ft 190° 190° 5 kt METAR LFSL 150800Z AUTO 19005KT 160V220 9999 BKN009 19/17 Q1011 TEMPO 4000 -RA
09:30
I
18 °C 10 km+ 500 ft Var Var 3 kt METAR LFSL 150730Z AUTO VRB03KT 9999 BKN005 BKN009 BKN040 18/17 Q1011 TEMPO 4000 -RA
09:00
L
17 °C 10 km+ 400 ft 180° 180° 3 kt METAR LFSL 150700Z AUTO 18003KT 150V220 9999 OVC004 17/16 Q1011 BECMG BKN025
08:30
I
16 °C 9 km 600 ft Var Var 3 kt METAR LFSL 150630Z AUTO VRB03KT 9000 BKN006 OVC034 16/16 Q1011 BECMG BKN025
08:00
V
16 °C 9 km 3.500 ft 160° 160° 3 kt METAR LFSL 150600Z AUTO 16003KT 130V200 9000 SCT003 BKN035 OVC054 16/15 Q1011 NOSIG
07:30
V
15 °C 9 km - 190° 190° 4 kt METAR LFSL 150530Z AUTO 19004KT 9000 NSC 15/15 Q1011 NOSIG
07:00
V
15 °C 10 km+ 5.200 ft 180° 180° 3 kt METAR LFSL 150500Z AUTO 18003KT 150V210 9999 FEW044 OVC052 15/15 Q1010 NOSIG
06:30
V
15 °C 10 km+ 4.700 ft Var Var 2 kt METAR LFSL 150430Z AUTO VRB02KT 9999 FEW040 BKN047 15/15 Q1011 NOSIG
06:00
V
15 °C 9 km - 190° 190° 3 kt METAR LFSL 150400Z AUTO 19003KT 9000 NSC 15/15 Q1011 TEMPO 4000 BR
05:30
V
16 °C 8 km 16.000 ft 180° 180° 3 kt METAR LFSL 150330Z AUTO 18003KT 8000 SCT011 BKN160 BKN190 16/15 Q1011 TEMPO 4000 BR
05:00
V
15 °C 8 km - Var Var 2 kt METAR LFSL 150300Z AUTO VRB02KT 8000 NSC 15/15 Q1011
04:30
M
16 °C 7 km - Var Var 2 kt METAR LFSL 150230Z AUTO VRB02KT 7000 NSC 16/15 Q1011
04:00
L
16 °C 9 km - 200° 200° 2 kt METAR LFSL 150200Z AUTO 20002KT 9000 VV/// 16/15 Q1011
03:30
L
15 °C 6 km - Var 000° 0 kt METAR LFSL 150130Z AUTO 00000KT 6000 VV/// 15/15 Q1011
03:00
V
16 °C 10 km+ - Var Var 2 kt METAR LFSL 150100Z AUTO VRB02KT CAVOK 16/15 Q1011
02:30
V
16 °C 10 km+ - 180° 180° 2 kt METAR LFSL 150030Z AUTO 18002KT CAVOK 16/16 Q1011
02:00
V
16 °C 10 km+ - Var Var 2 kt METAR LFSL 150000Z AUTO VRB02KT CAVOK 16/15 Q1011
01:30
V
17 °C 10 km+ - Var 000° 0 kt METAR LFSL 142330Z AUTO 00000KT CAVOK 17/16 Q1011
01:00
V
18 °C 10 km+ - 210° 210° 2 kt METAR LFSL 142300Z AUTO 21002KT CAVOK 18/16 Q1011
00:30
V
18 °C 10 km+ 7.800 ft 200° 200° 2 kt METAR LFSL 142230Z AUTO 20002KT 9999 FEW028/// BKN078/// //////TCU 18/17 Q1011
00:00
V
19 °C 10 km+ - Var Var 3 kt METAR LFSL 142200Z AUTO VRB03KT CAVOK 19/17 Q1011

14 agosto 2022

Tempo Codice Tempo metereologico Temp. Vista Base nuvolosa Vento METAR/SPECI
23:30
V
20 °C 10 km+ 6.400 ft Var Var 2 kt METAR LFSL 142130Z AUTO VRB02KT 9999 FEW034 BKN064 20/17 Q1011
23:00
V
20 °C 10 km+ 6.200 ft Var Var 2 kt METAR LFSL 142100Z AUTO VRB02KT 9999 FEW045 OVC062 20/18 Q1011
22:30
V
20 °C 10 km+ 6.600 ft 200° 200° 2 kt METAR LFSL 142030Z AUTO 20002KT 9999 FEW038 OVC066 20/18 Q1011
22:00
V
20 °C 10 km+ 6.600 ft 190° 190° 2 kt METAR LFSL 142000Z AUTO 19002KT 9999 FEW036 OVC066 20/18 Q1011 NOSIG
21:30
V
21 °C 10 km+ 4.600 ft Var Var 1 kt METAR LFSL 141930Z AUTO VRB01KT 9999 FEW037 BKN046 OVC068 21/18 Q1011 NOSIG
21:00
V
21 °C 10 km+ 4.500 ft Var Var 2 kt METAR LFSL 141900Z AUTO VRB02KT 9999 FEW024 SCT031 BKN045 21/17 Q1011 NOSIG
20:30
V
22 °C 10 km+ 3.400 ft Var Var 2 kt METAR LFSL 141830Z AUTO VRB02KT 9999 SCT027 BKN034 BKN060 22/17 Q1010 NOSIG
20:00
M
22 °C 10 km+ 2.800 ft 280° 280° 4 kt METAR LFSL 141800Z AUTO 28004KT 240V330 9999 BKN028 BKN033 OVC044 22/16 Q1011 NOSIG
19:30
M
23 °C 10 km+ 2.900 ft 280° 280° 4 kt METAR LFSL 141730Z AUTO 28004KT 150V320 9999 BKN029 BKN034 23/17 Q1011 NOSIG
19:00
V
23 °C 10 km+ - 310° 310° 5 kt METAR LFSL 141700Z AUTO 31005KT 230V340 9999 FEW026 23/17 Q1010 NOSIG
18:30
V
23 °C 10 km+ - 290° 290° 5 kt METAR LFSL 141630Z AUTO 29005KT 210V330 CAVOK 23/17 Q1011 NOSIG
18:00
V
23 °C 10 km+ - 290° 290° 7 kt METAR LFSL 141600Z AUTO 29007KT 230V330 CAVOK 23/16 Q1011 TEMPO 4000 -SHRA BKN015TCU
17:30
V
23 °C 10 km+ - 270° 270° 5 kt METAR LFSL 141530Z AUTO 27005KT 180V330 CAVOK 23/17 Q1011 NOSIG
17:00
V
22 °C 10 km+ - 230° 230° 4 kt METAR LFSL 141500Z AUTO 23004KT 150V310 CAVOK 22/18 Q1011 TEMPO 4000 -SHRA BKN010 BKN015TCU
16:30
M
21 °C 10 km+ 2.300 ft Var Var 3 kt METAR LFSL 141430Z AUTO VRB03KT 9999 SCT011 BKN023 BKN120 21/19 Q1011 TEMPO 4000 -SHRA BKN010 BKN015TCU
16:00
V
19 °C 10 km+ 11.000 ft Var Var 2 kt METAR LFSL 141400Z AUTO VRB02KT 9999 SCT016/// SCT026/// OVC110/// //////TCU 19/17 Q1012 TEMPO 4000 -SHRA BKN010 BKN015TCU
Dati più vecchi

Noi e le terze parti seguiamo il tuo comportamento in internet sul nostro sito web con i cookie. Se continui, riteniamo che tu sia d'accordo con la nostra politica sui cookie. Per saperne di più